Time;durP1;ratioP1;P1;durP2;ratioP2;P2;SDS_P1;SDS_P2;PMS_P1;PMS_P2;Temp;Humidity;BMP_temperature;BMP_pressure;BME280_temperature;BME280_humidity;BME280_pressure;Samples;Min_cycle;Max_cycle;Signal;HPM_P1;HPM_P2
2023/05/17 00:01:15;;;;;;;22.30;7.78;;;;;;;18.94;100.00;100619.88;2103242;28;20052;-71
2023/05/17 00:02:38;;;;;;;23.38;6.82;;;;;;;18.93;100.00;100607.41;2091786;28;20052;-71
2023/05/17 00:04:01;;;;;;;18.70;6.40;;;;;;;18.95;100.00;100613.63;2102864;28;20055;-71
2023/05/17 00:05:23;;;;;;;21.15;7.07;;;;;;;18.91;100.00;100611.91;2098385;28;20063;-71
2023/05/17 00:06:46;;;;;;;20.70;7.53;;;;;;;18.86;100.00;100608.44;2102510;28;20051;-71
2023/05/17 00:08:10;;;;;;;31.70;7.95;;;;;;;18.85;100.00;100607.56;2091547;28;20052;-71
2023/05/17 00:09:32;;;;;;;25.75;8.10;;;;;;;18.85;100.00;100606.69;2086701;28;20045;-71
2023/05/17 00:10:53;;;;;;;23.67;7.88;;;;;;;18.82;100.00;100612.09;2086389;28;20033;-71
2023/05/17 00:12:16;;;;;;;21.00;7.25;;;;;;;18.80;100.00;100620.16;2086432;28;20099;-71
2023/05/17 00:13:39;;;;;;;18.27;7.35;;;;;;;18.76;100.00;100613.13;2079473;28;20487;-71
2023/05/17 00:15:02;;;;;;;20.90;7.90;;;;;;;18.73;100.00;100623.88;2090292;28;20044;-70
2023/05/17 00:16:23;;;;;;;23.95;6.68;;;;;;;18.72;100.00;100616.75;2086670;28;20094;-71
2023/05/17 00:17:45;;;;;;;21.50;7.20;;;;;;;18.74;100.00;100619.41;2082973;28;20080;-71
2023/05/17 00:19:09;;;;;;;23.23;6.82;;;;;;;18.74;100.00;100614.94;2083701;28;20041;-71
2023/05/17 00:20:32;;;;;;;18.45;7.38;;;;;;;18.74;100.00;100617.59;2089490;28;20045;-71
2023/05/17 00:21:54;;;;;;;18.48;7.00;;;;;;;18.72;100.00;100611.41;2086642;28;20045;-71
2023/05/17 00:23:17;;;;;;;20.05;6.63;;;;;;;18.72;100.00;100608.72;2091554;28;20048;-71
2023/05/17 00:24:38;;;;;;;26.00;7.70;;;;;;;18.68;100.00;100609.72;2109650;28;20416;-71
2023/05/17 00:26:01;;;;;;;29.75;8.63;;;;;;;18.62;100.00;100612.50;2100117;28;20048;-71
2023/05/17 00:27:22;;;;;;;18.92;7.65;;;;;;;18.56;100.00;100617.97;2102205;28;20040;-71
2023/05/17 00:28:45;;;;;;;21.98;7.63;;;;;;;18.55;100.00;100606.41;2096142;28;20056;-71
2023/05/17 00:30:07;;;;;;;25.27;7.25;;;;;;;18.56;100.00;100605.50;2088479;28;20064;-71
2023/05/17 00:31:32;;;;;;;23.42;7.13;;;;;;;18.54;100.00;100603.72;2092213;28;20106;-71
2023/05/17 00:32:54;;;;;;;23.60;7.82;;;;;;;18.49;100.00;100598.47;2085525;28;20053;-71
2023/05/17 00:34:17;;;;;;;18.80;7.30;;;;;;;18.51;100.00;100601.13;2091942;28;20136;-71
2023/05/17 00:35:39;;;;;;;23.83;7.25;;;;;;;18.53;100.00;100604.63;2096973;28;20048;-71
2023/05/17 00:37:01;;;;;;;21.95;7.50;;;;;;;18.54;100.00;100607.28;2085252;28;20044;-71
2023/05/17 00:38:23;;;;;;;21.50;7.22;;;;;;;18.56;100.00;100607.28;2094389;28;20052;-71
2023/05/17 00:39:46;;;;;;;19.10;7.07;;;;;;;18.57;100.00;100609.06;2101955;28;20538;-71
2023/05/17 00:41:07;;;;;;;21.88;7.63;;;;;;;18.56;100.00;100605.50;2085701;28;20156;-71
2023/05/17 00:42:30;;;;;;;22.70;6.75;;;;;;;18.53;100.00;100600.16;2077250;28;20057;-72
2023/05/17 00:43:51;;;;;;;22.83;7.38;;;;;;;18.50;100.00;100600.22;2084312;28;20049;-71
2023/05/17 00:45:13;;;;;;;22.60;7.13;;;;;;;18.49;100.00;100597.59;2092964;28;20619;-71
2023/05/17 00:46:34;;;;;;;20.17;6.55;;;;;;;18.47;100.00;100592.25;2093173;28;20106;-71
2023/05/17 00:47:57;;;;;;;21.60;6.57;;;;;;;18.45;100.00;100596.75;2103700;28;20040;-71
2023/05/17 00:49:21;;;;;;;17.90;6.55;;;;;;;18.44;100.00;100595.00;2086275;28;20055;-71
2023/05/17 00:50:42;;;;;;;18.75;6.72;;;;;;;18.42;100.00;100593.25;2083299;28;20045;-71
2023/05/17 00:52:06;;;;;;;20.88;6.20;;;;;;;18.34;100.00;100598.75;2094081;28;20062;-71
2023/05/17 00:53:28;;;;;;;18.10;7.05;;;;;;;18.25;100.00;100588.22;2085634;28;20049;-71
2023/05/17 00:54:52;;;;;;;21.80;6.60;;;;;;;18.22;100.00;100590.97;2083527;28;20044;-72
2023/05/17 00:56:14;;;;;;;23.05;7.60;;;;;;;18.17;100.00;100585.72;2083081;28;20045;-71
2023/05/17 00:57:37;;;;;;;23.48;7.30;;;;;;;18.11;100.00;100596.53;2093613;28;20105;-71
2023/05/17 00:58:58;;;;;;;22.63;7.35;;;;;;;18.07;100.00;100594.78;2099942;28;20150;-71
2023/05/17 01:00:21;;;;;;;19.45;7.95;;;;;;;18.03;100.00;100594.88;2094161;28;20136;-71
2023/05/17 01:01:45;;;;;;;21.83;7.55;;;;;;;18.03;100.00;100595.75;2091661;28;20382;-71
2023/05/17 01:03:07;;;;;;;22.27;7.03;;;;;;;18.05;100.00;100591.25;2102527;28;20076;-71
2023/05/17 01:04:31;;;;;;;19.83;7.00;;;;;;;18.07;100.00;100589.44;2105196;28;20576;-72
2023/05/17 01:05:53;;;;;;;25.55;7.22;;;;;;;18.07;100.00;100578.75;2102651;28;20118;-71
2023/05/17 01:07:16;;;;;;;23.88;8.05;;;;;;;18.09;100.00;100587.63;2104967;28;20039;-71
2023/05/17 01:08:42;;;;;;;18.75;6.57;;;;;;;18.08;100.00;100595.66;2096692;28;20094;-71
2023/05/17 01:10:06;;;;;;;23.80;7.47;;;;;;;18.06;100.00;100598.34;2102329;28;20043;-71
2023/05/17 01:11:39;;;;;;;25.67;6.95;;;;;;;18.02;100.00;100594.00;2098417;28;20501;-71
2023/05/17 01:13:07;;;;;;;18.92;7.20;;;;;;;18.01;100.00;100583.31;2095377;28;20044;-71
2023/05/17 01:14:43;;;;;;;23.95;7.53;;;;;;;17.95;100.00;100578.97;2092524;28;20056;-72
2023/05/17 01:16:14;;;;;;;27.52;7.10;;;;;;;17.94;100.00;100574.53;2095338;28;20055;-71
2023/05/17 01:17:44;;;;;;;29.48;8.10;;;;;;;17.93;100.00;100578.13;2093874;28;20442;-71
2023/05/17 01:19:22;;;;;;;20.33;7.28;;;;;;;17.92;100.00;100574.56;2093932;28;20122;-71
2023/05/17 01:20:48;;;;;;;26.88;8.50;;;;;;;17.91;100.00;100574.63;2095255;28;20374;-71
2023/05/17 01:22:16;;;;;;;18.10;7.22;;;;;;;17.89;100.00;100565.75;2108117;28;20042;-71
2023/05/17 01:23:49;;;;;;;25.35;7.55;;;;;;;17.87;100.00;100564.88;2082156;28;20053;-71
2023/05/17 01:25:27;;;;;;;24.30;8.20;;;;;;;17.89;100.00;100569.28;2078003;28;20053;-71
2023/05/17 01:26:53;;;;;;;25.17;8.02;;;;;;;17.92;100.00;100571.00;2086730;28;20053;-71
2023/05/17 01:28:16;;;;;;;24.92;7.75;;;;;;;17.96;100.00;100567.41;2091229;28;20114;-71
2023/05/17 01:29:43;;;;;;;19.63;7.53;;;;;;;17.97;100.00;100577.19;2109910;28;20052;-71
2023/05/17 01:31:07;;;;;;;24.02;6.85;;;;;;;17.91;100.00;100575.50;2090495;28;20045;-71
2023/05/17 01:32:32;;;;;;;24.33;7.57;;;;;;;17.76;100.00;100582.88;2091365;28;20085;-71
2023/05/17 01:33:57;;;;;;;22.25;6.45;;;;;;;17.69;100.00;100573.19;2084158;28;20045;-71
2023/05/17 01:35:18;;;;;;;20.00;7.00;;;;;;;17.70;100.00;100570.50;2085275;28;20045;-71
2023/05/17 01:36:42;;;;;;;24.65;7.93;;;;;;;17.61;100.00;100567.09;2085291;28;20088;-71
2023/05/17 01:38:04;;;;;;;23.48;6.57;;;;;;;17.45;100.00;100569.13;2091538;28;20099;-71
2023/05/17 01:39:26;;;;;;;20.23;7.18;;;;;;;17.35;100.00;100571.03;2095598;28;20044;-72
2023/05/17 01:40:54;;;;;;;18.30;7.03;;;;;;;17.39;100.00;100574.56;2107848;28;20074;-71
2023/05/17 01:42:22;;;;;;;21.63;7.00;;;;;;;17.49;100.00;100585.03;2094913;28;20075;-72
2023/05/17 01:43:50;;;;;;;21.67;7.38;;;;;;;17.60;100.00;100583.97;2095785;28;20048;-71
2023/05/17 01:45:20;;;;;;;27.58;7.80;;;;;;;17.67;100.00;100575.88;2102842;28;20048;-71
2023/05/17 01:46:44;;;;;;;26.10;7.93;;;;;;;17.72;100.00;100573.16;2085816;28;20060;-71
2023/05/17 01:48:19;;;;;;;18.20;8.00;;;;;;;17.76;100.00;100564.19;2103852;28;20047;-71
2023/05/17 01:49:47;;;;;;;21.83;7.32;;;;;;;17.77;100.00;100574.84;2096651;28;20056;-71
2023/05/17 01:51:19;;;;;;;20.30;7.50;;;;;;;17.80;100.00;100579.22;2086635;28;20053;-71
2023/05/17 01:52:48;;;;;;;22.33;7.57;;;;;;;17.82;100.00;100577.44;2079683;28;20050;-71
2023/05/17 01:54:11;;;;;;;22.83;7.63;;;;;;;17.84;100.00;100580.97;2092851;28;20417;-71
2023/05/17 01:55:41;;;;;;;22.70;7.47;;;;;;;17.85;100.00;100572.06;2088123;28;20055;-71
2023/05/17 01:57:07;;;;;;;24.20;7.55;;;;;;;17.84;100.00;100571.16;2078304;28;20453;-71
2023/05/17 01:58:34;;;;;;;22.95;7.35;;;;;;;17.86;100.00;100576.47;2080446;28;20053;-71
2023/05/17 02:00:03;;;;;;;19.35;7.05;;;;;;;17.84;100.00;100570.28;2078492;28;20094;-71
2023/05/17 02:01:37;;;;;;;21.10;7.10;;;;;;;17.80;100.00;100580.13;2104296;28;20139;-71
2023/05/17 02:02:59;;;;;;;23.10;7.75;;;;;;;17.81;100.00;100581.00;2082909;28;20053;-71
2023/05/17 02:04:21;;;;;;;17.95;7.40;;;;;;;17.81;100.00;100589.00;2077669;28;20107;-71
2023/05/17 02:05:43;;;;;;;20.25;6.43;;;;;;;17.79;100.00;100580.13;2092957;28;20090;-71
2023/05/17 02:07:06;;;;;;;23.92;7.15;;;;;;;17.77;100.00;100590.88;2074406;28;20097;-71
2023/05/17 02:08:28;;;;;;;27.83;7.63;;;;;;;17.76;100.00;100582.88;2080795;28;20516;-71
2023/05/17 02:09:49;;;;;;;20.05;6.45;;;;;;;17.76;100.00;100588.22;2074578;28;20432;-71
2023/05/17 02:11:12;;;;;;;18.55;7.65;;;;;;;17.75;100.00;100589.13;2091139;28;20049;-71
2023/05/17 02:12:33;;;;;;;22.15;7.63;;;;;;;17.69;100.00;100584.75;2092207;28;20044;-71
2023/05/17 02:13:57;;;;;;;25.05;7.43;;;;;;;17.61;100.00;100591.13;2084857;28;20076;-71
2023/05/17 02:15:18;;;;;;;21.58;7.35;;;;;;;17.53;100.00;100597.44;2082563;28;20098;-71
2023/05/17 02:16:41;;;;;;;23.50;7.38;;;;;;;17.52;100.00;100594.81;2091127;28;20515;-71
2023/05/17 02:18:03;;;;;;;23.58;7.70;;;;;;;17.53;100.00;100596.53;2080423;28;20056;-70
2023/05/17 02:19:26;;;;;;;22.48;7.68;;;;;;;17.54;100.00;100599.19;2087167;28;20044;-71
2023/05/17 02:20:48;;;;;;;29.65;8.20;;;;;;;17.59;100.00;100601.78;2085617;28;20049;-71
2023/05/17 02:22:11;;;;;;;22.25;7.38;;;;;;;17.61;100.00;100602.69;2094949;28;20044;-71
2023/05/17 02:23:34;;;;;;;26.38;7.63;;;;;;;17.63;100.00;100608.00;2103524;28;20487;-71
2023/05/17 02:24:56;;;;;;;21.08;7.28;;;;;;;17.67;100.00;100607.03;2098749;28;20049;-71
2023/05/17 02:26:17;;;;;;;20.50;6.93;;;;;;;17.73;100.00;100614.94;2092957;28;20086;-71
2023/05/17 02:27:39;;;;;;;18.15;6.95;;;;;;;17.77;100.00;100617.56;2105894;28;20047;-72
2023/05/17 02:29:05;;;;;;;20.17;6.68;;;;;;;17.79;100.00;100621.06;2090332;28;20414;-71
2023/05/17 02:30:27;;;;;;;22.65;5.88;;;;;;;17.80;100.00;100621.97;2103987;28;20048;-71
2023/05/17 02:31:48;;;;;;;16.83;6.32;;;;;;;17.78;100.00;100614.00;2082832;28;20053;-71
2023/05/17 02:33:13;;;;;;;18.42;5.50;;;;;;;17.78;100.00;100626.47;2072948;28;20073;-71
2023/05/17 02:34:34;;;;;;;18.15;6.10;;;;;;;17.80;100.00;100629.97;2078995;28;20053;-71
2023/05/17 02:35:57;;;;;;;16.75;5.63;;;;;;;17.82;100.00;100628.16;2091180;28;20075;-70
2023/05/17 02:37:19;;;;;;;18.70;6.00;;;;;;;17.81;100.00;100635.28;2093545;28;20072;-71
2023/05/17 02:38:41;;;;;;;24.92;7.38;;;;;;;17.83;100.00;100633.50;2093013;28;20044;-71
2023/05/17 02:40:07;;;;;;;22.05;6.97;;;;;;;17.85;100.00;100628.97;2084773;28;20464;-71
2023/05/17 02:41:28;;;;;;;19.08;6.25;;;;;;;17.84;100.00;100623.69;2090210;28;20155;-71
2023/05/17 02:42:52;;;;;;;19.60;6.85;;;;;;;17.82;100.00;100626.38;2092526;28;20051;-71
2023/05/17 02:44:15;;;;;;;20.83;7.45;;;;;;;17.79;100.00;100625.53;2110592;28;20076;-71
2023/05/17 02:45:37;;;;;;;19.92;6.78;;;;;;;17.74;100.00;100625.63;2089036;28;20140;-71
2023/05/17 02:46:59;;;;;;;19.88;6.35;;;;;;;17.71;100.00;100616.78;2082303;28;20071;-71
2023/05/17 02:48:22;;;;;;;20.60;6.20;;;;;;;17.70;100.00;100623.03;2090602;28;20078;-71
2023/05/17 02:49:45;;;;;;;22.35;6.63;;;;;;;17.68;100.00;100616.81;2084400;28;20045;-72
2023/05/17 02:51:07;;;;;;;19.58;7.38;;;;;;;17.66;100.00;100624.84;2087909;28;20025;-71
2023/05/17 02:52:28;;;;;;;21.55;6.72;;;;;;;17.63;100.00;100630.25;2092397;28;20056;-70
2023/05/17 02:53:51;;;;;;;21.05;7.10;;;;;;;17.57;100.00;100629.44;2086632;28;20791;-71
2023/05/17 02:55:12;;;;;;;22.05;6.00;;;;;;;17.44;100.00;100629.63;2099834;28;20097;-71
2023/05/17 02:56:35;;;;;;;19.98;5.95;;;;;;;17.36;100.00;100635.97;2093647;28;20045;-71
2023/05/17 02:57:58;;;;;;;23.77;6.75;;;;;;;17.34;100.00;100638.63;2103158;28;20044;-71
2023/05/17 02:59:21;;;;;;;18.35;6.55;;;;;;;17.32;100.00;100634.25;2080467;28;20041;-71
2023/05/17 03:00:45;;;;;;;20.52;7.43;;;;;;;17.30;100.00;100638.72;2083579;28;20437;-71
2023/05/17 03:02:08;;;;;;;23.48;6.82;;;;;;;17.30;100.00;100650.28;2080670;28;20041;-71
2023/05/17 03:03:30;;;;;;;22.55;7.68;;;;;;;17.34;100.00;100649.31;2095242;28;20083;-71
2023/05/17 03:04:52;;;;;;;;;;;;;;;17.35;100.00;100653.75;2082248;28;20053;-71
2023/05/17 03:06:15;;;;;;;20.75;7.05;;;;;;;17.34;100.00;100648.44;2080227;28;20015;-71
2023/05/17 03:07:37;;;;;;;20.83;7.38;;;;;;;17.34;100.00;100654.66;2092741;28;20538;-71
2023/05/17 03:09:00;;;;;;;25.88;8.10;;;;;;;17.31;100.00;100644.03;2085643;28;20057;-71
2023/05/17 03:10:22;;;;;;;19.27;7.15;;;;;;;17.30;100.00;100644.06;2105976;28;20032;-71
2023/05/17 03:11:44;;;;;;;16.80;5.65;;;;;;;17.28;100.00;100644.06;2092119;28;20049;-71
2023/05/17 03:13:13;;;;;;;15.13;5.45;;;;;;;17.26;100.00;100648.56;2093161;28;20044;-71
2023/05/17 03:14:37;;;;;;;24.40;6.47;;;;;;;17.24;100.00;100653.03;2085014;28;20041;-71
2023/05/17 03:15:59;;;;;;;23.73;7.15;;;;;;;17.21;100.00;100645.03;2084409;28;20584;-71
2023/05/17 03:17:21;;;;;;;25.42;8.23;;;;;;;17.21;100.00;100652.16;2100793;28;20105;-71
2023/05/17 03:18:44;;;;;;;19.45;7.18;;;;;;;17.19;100.00;100660.22;2089382;28;20143;-70
2023/05/17 03:20:07;;;;;;;17.45;7.03;;;;;;;17.18;100.00;100653.09;2100919;28;20083;-71
2023/05/17 03:21:31;;;;;;;18.52;7.10;;;;;;;17.19;100.00;100651.31;2089593;28;20049;-71
2023/05/17 03:22:53;;;;;;;20.95;7.03;;;;;;;17.19;100.00;100662.00;2108705;28;20058;-71
2023/05/17 03:24:16;;;;;;;20.00;7.00;;;;;;;17.18;100.00;100661.13;2092170;28;20048;-70
2023/05/17 03:25:38;;;;;;;20.75;7.50;;;;;;;17.19;100.00;100659.34;2103248;28;20048;-71
2023/05/17 03:27:00;;;;;;;20.40;7.70;;;;;;;17.19;100.00;100662.88;2091825;28;20118;-71
2023/05/17 03:28:22;;;;;;;22.50;7.88;;;;;;;17.19;100.00;100660.22;2078653;28;20434;-71
2023/05/17 03:29:45;;;;;;;25.05;8.50;;;;;;;17.17;100.00;100663.78;2086744;28;20048;-71
2023/05/17 03:31:07;;;;;;;18.48;6.82;;;;;;;17.15;100.00;100661.13;2100695;28;20060;-71
2023/05/17 03:32:30;;;;;;;16.80;6.80;;;;;;;17.14;100.00;100667.38;2095247;28;20106;-71
2023/05/17 03:33:51;;;;;;;22.58;7.20;;;;;;;17.15;100.00;100661.13;2100539;28;20082;-71
2023/05/17 03:35:14;;;;;;;;;;;;;;;17.13;100.00;100671.81;2103639;28;20535;-71
2023/05/17 03:36:40;;;;;;;15.85;5.82;;;;;;;17.13;100.00;100670.97;2095529;28;19924;-71
2023/05/17 03:38:02;;;;;;;20.48;5.88;;;;;;;17.13;100.00;100671.81;2100522;28;20134;-70
2023/05/17 03:39:24;;;;;;;19.98;5.90;;;;;;;17.15;100.00;100666.47;2094886;28;20504;-71
2023/05/17 03:40:46;;;;;;;15.73;5.15;;;;;;;17.16;100.00;100670.03;2090768;28;20668;-71
2023/05/17 03:42:07;;;;;;;16.55;5.18;;;;;;;17.17;100.00;100671.78;2089510;28;20093;-71
2023/05/17 03:43:31;;;;;;;18.42;5.20;;;;;;;17.18;100.00;100670.91;2085418;28;20041;-71
2023/05/17 03:44:55;;;;;;;20.05;5.35;;;;;;;17.15;100.00;100674.47;2087612;28;20045;-71
2023/05/17 03:46:17;;;;;;;14.52;5.13;;;;;;;17.18;100.00;100678.91;2094748;28;20056;-71
2023/05/17 03:47:39;;;;;;;22.52;6.10;;;;;;;17.23;100.00;100674.38;2084997;28;20540;-71
2023/05/17 03:49:02;;;;;;;19.10;5.75;;;;;;;17.28;100.00;100676.09;2083843;28;20041;-71
2023/05/17 03:50:26;;;;;;;16.42;5.32;;;;;;;17.32;100.00;100671.59;2098789;28;20056;-71
2023/05/17 03:51:49;;;;;;;20.15;5.30;;;;;;;17.37;100.00;100675.97;2087861;28;20052;-71
2023/05/17 03:53:11;;;;;;;15.25;4.63;;;;;;;17.42;100.00;100676.78;2085693;28;20184;-70
2023/05/17 03:54:34;;;;;;;17.65;4.88;;;;;;;17.48;100.00;100678.47;2086253;28;20068;-70
2023/05/17 03:55:56;;;;;;;15.23;4.22;;;;;;;17.54;100.00;100681.06;2091380;28;20576;-70
2023/05/17 03:57:19;;;;;;;15.93;4.40;;;;;;;17.58;100.00;100673.91;2085902;28;20051;-70
2023/05/17 03:58:42;;;;;;;16.17;4.65;;;;;;;17.64;100.00;100679.19;2086277;28;20070;-71
2023/05/17 04:00:11;;;;;;;12.23;3.90;;;;;;;17.69;100.00;100672.00;2082993;28;20053;-71
2023/05/17 04:01:35;;;;;;;12.05;4.38;;;;;;;17.70;100.00;100668.41;2103710;28;20146;-71
2023/05/17 04:02:58;;;;;;;15.65;4.07;;;;;;;17.73;100.00;100671.91;2090079;28;20053;-71
2023/05/17 04:04:20;;;;;;;15.52;4.10;;;;;;;17.80;100.00;100668.25;2083508;28;20053;-70
2023/05/17 04:05:44;;;;;;;16.30;4.13;;;;;;;17.87;100.00;100674.38;2082061;28;20184;-71
2023/05/17 04:07:06;;;;;;;12.07;4.68;;;;;;;17.90;100.00;100677.88;2085125;28;20048;-71
2023/05/17 04:08:28;;;;;;;17.70;4.97;;;;;;;17.92;100.00;100669.81;2100307;28;20040;-71
2023/05/17 04:09:49;;;;;;;15.00;4.90;;;;;;;17.95;100.00;100675.13;2091757;28;20056;-71
2023/05/17 04:11:12;;;;;;;18.45;5.70;;;;;;;18.00;100.00;100673.28;2077541;28;20056;-71
2023/05/17 04:12:35;;;;;;;14.32;4.65;;;;;;;18.08;100.00;100670.47;2078960;28;20114;-71
2023/05/17 04:13:57;;;;;;;15.82;4.60;;;;;;;18.15;100.00;100666.78;2083985;28;20045;-71
2023/05/17 04:15:22;;;;;;;13.85;4.38;;;;;;;18.20;100.00;100675.59;2086172;28;20493;-70
2023/05/17 04:16:45;;;;;;;15.20;4.55;;;;;;;18.24;100.00;100675.56;2089209;28;20529;-71
2023/05/17 04:18:08;;;;;;;15.40;4.65;;;;;;;18.33;100.00;100682.50;2078627;28;20140;-71
2023/05/17 04:19:29;;;;;;;16.38;5.07;;;;;;;18.41;100.00;100677.03;2082462;28;20045;-71
2023/05/17 04:20:51;;;;;;;9.32;4.38;;;;;;;18.47;100.00;100672.47;2083602;28;20044;-71
2023/05/17 04:22:13;;;;;;;15.65;4.65;;;;;;;18.54;100.00;100671.44;2083158;28;20052;-71
2023/05/17 04:23:36;;;;;;;;;;;;;;;18.57;100.00;100668.75;2094114;28;20496;-71
2023/05/17 04:24:57;;;;;;;16.52;4.68;;;;;;;18.65;100.00;100677.50;2089034;28;20023;-70
2023/05/17 04:26:20;;;;;;;12.95;4.68;;;;;;;18.74;100.00;100668.41;2094202;28;20052;-70
2023/05/17 04:27:43;;;;;;;17.70;4.43;;;;;;;18.82;100.00;100676.31;2085669;28;20556;-71
2023/05/17 04:29:05;;;;;;;13.68;4.82;;;;;;;18.89;100.00;100680.63;2091426;28;20044;-70
2023/05/17 04:30:29;;;;;;;14.15;4.72;;;;;;;18.96;100.00;100674.25;2083306;28;20075;-71
2023/05/17 04:31:51;;;;;;;14.70;4.45;;;;;;;19.02;100.00;100674.13;2092069;28;20053;-71
2023/05/17 04:33:13;;;;;;;13.52;4.40;;;;;;;19.07;100.00;100675.78;2086125;28;20106;-71
2023/05/17 04:34:35;;;;;;;13.27;5.00;;;;;;;19.16;100.00;100681.84;2091875;28;20049;-71
2023/05/17 04:35:59;;;;;;;14.73;4.38;;;;;;;19.28;100.00;100685.16;2087850;28;20047;-71
2023/05/17 04:37:22;;;;;;;11.57;4.75;;;;;;;19.40;100.00;100682.22;2083880;28;20094;-71
2023/05/17 04:38:48;;;;;;;11.80;3.63;;;;;;;19.49;100.00;100684.69;2092632;28;20044;-71
2023/05/17 04:40:13;;;;;;;15.95;4.35;;;;;;;19.59;100.00;100676.47;2085837;28;20045;-71
2023/05/17 04:41:36;;;;;;;14.07;4.60;;;;;;;19.68;100.00;100677.16;2083955;28;20041;-71
2023/05/17 04:43:02;;;;;;;14.23;4.15;;;;;;;19.75;100.00;100678.78;2091329;28;20525;-71
2023/05/17 04:44:24;;;;;;;11.30;3.88;;;;;;;19.82;100.00;100679.50;2084845;28;20049;-70
2023/05/17 04:45:49;;;;;;;12.95;3.95;;;;;;;19.92;100.00;100674.81;2100377;28;20143;-70
2023/05/17 04:47:11;;;;;;;13.50;4.80;;;;;;;20.00;100.00;100673.72;2095384;28;20033;-71
2023/05/17 04:48:33;;;;;;;11.70;3.40;;;;;;;20.09;100.00;100675.25;2088604;28;20048;-71
2023/05/17 04:49:55;;;;;;;15.18;4.80;;;;;;;20.16;100.00;100675.06;2103157;28;20052;-71
2023/05/17 04:51:19;;;;;;;11.95;4.28;;;;;;;20.23;100.00;100673.13;2083014;28;20110;-71
2023/05/17 04:52:43;;;;;;;14.10;4.35;;;;;;;20.32;100.00;100674.69;2083469;28;20049;-71
2023/05/17 04:54:07;;;;;;;16.83;4.18;;;;;;;20.41;100.00;100678.06;2082651;28;20082;-71
2023/05/17 04:55:31;;;;;;;15.20;4.20;;;;;;;20.51;100.00;100679.56;2084493;28;20500;-71
2023/05/17 04:56:54;;;;;;;15.77;4.35;;;;;;;20.63;100.00;100684.59;2067224;28;20042;-71
2023/05/17 04:58:37;;;;;;;15.68;4.00;;;;;;;20.73;100.00;100690.63;2088675;28;20049;-71
2023/05/17 05:00:00;;;;;;;13.57;4.05;;;;;;;20.80;100.00;100683.28;2086395;28;20143;-72
2023/05/17 05:01:24;;;;;;;16.08;3.72;;;;;;;20.86;100.00;100686.66;2085581;28;20052;-71
2023/05/17 05:02:51;;;;;;;14.15;3.92;;;;;;;20.95;100.00;100688.19;2086605;28;20049;-71
2023/05/17 05:04:12;;;;;;;12.05;3.30;;;;;;;21.04;100.00;100687.94;2077857;28;20049;-71
2023/05/17 05:05:37;;;;;;;12.80;3.55;;;;;;;21.12;100.00;100693.97;2086081;28;20428;-71
2023/05/17 05:07:00;;;;;;;15.35;4.47;;;;;;;21.17;100.00;100689.38;2083942;28;20041;-71
2023/05/17 05:08:21;;;;;;;14.30;4.00;;;;;;;21.27;100.00;100688.19;2080063;28;20509;-71
2023/05/17 05:09:44;;;;;;;17.08;4.60;;;;;;;21.42;100.00;100692.22;2085826;28;20436;-71
2023/05/17 05:11:07;;;;;;;13.70;3.78;;;;;;;21.57;100.00;100689.06;2086347;28;20071;-72
2023/05/17 05:12:30;;;;;;;15.43;3.25;;;;;;;21.68;100.00;100686.03;2089742;28;20049;-72
2023/05/17 05:13:54;;;;;;;15.50;3.67;;;;;;;21.81;100.00;100690.13;2087429;28;20558;-71
2023/05/17 05:15:15;;;;;;;12.65;3.58;;;;;;;21.95;100.00;100687.88;2084795;28;20099;-71
2023/05/17 05:16:45;;;;;;;14.07;3.97;;;;;;;22.11;100.00;100690.97;2097403;28;20045;-71
2023/05/17 05:18:07;;;;;;;13.55;3.95;;;;;;;22.22;100.00;100678.94;2083417;28;20184;-71
2023/05/17 05:19:28;;;;;;;10.70;3.25;;;;;;;22.35;100.00;100679.38;2088194;28;20063;-71
2023/05/17 05:20:52;;;;;;;10.43;3.03;;;;;;;22.43;100.00;100676.44;2083993;28;20041;-71
2023/05/17 05:22:14;;;;;;;13.10;3.60;;;;;;;22.53;100.00;100675.19;2085799;28;20144;-72
2023/05/17 05:23:37;;;;;;;14.00;3.08;;;;;;;22.62;100.00;100682.94;2082491;28;20131;-71
2023/05/17 05:24:58;;;;;;;13.63;3.13;;;;;;;22.70;100.00;100678.16;2082384;28;20513;-71
2023/05/17 05:26:21;;;;;;;13.07;4.03;;;;;;;22.75;100.00;100684.28;2092660;28;20053;-71
2023/05/17 05:27:44;;;;;;;13.60;3.53;;;;;;;22.77;100.00;100687.81;2086212;28;20442;-72
2023/05/17 05:29:07;;;;;;;11.75;3.15;;;;;;;22.82;100.00;100688.53;2083626;28;20037;-71
2023/05/17 05:30:30;;;;;;;14.35;3.17;;;;;;;22.94;100.00;100680.00;2095359;28;20052;-71
2023/05/17 05:31:54;;;;;;;11.43;3.35;;;;;;;23.09;100.00;100677.69;2080357;28;20405;-71
2023/05/17 05:33:18;;;;;;;13.02;3.17;;;;;;;23.22;100.00;100676.28;2092492;28;20094;-71
2023/05/17 05:34:40;;;;;;;11.05;3.42;;;;;;;23.32;100.00;100678.56;2096446;28;20040;-71
2023/05/17 05:36:03;;;;;;;18.15;3.20;;;;;;;23.50;100.00;100677.00;2105195;28;20059;-71
2023/05/17 05:37:24;;;;;;;12.30;3.60;;;;;;;23.67;100.00;100671.84;2087457;28;20041;-72
2023/05/17 05:38:47;;;;;;;11.95;3.70;;;;;;;23.82;100.00;100678.44;2082893;28;20501;-72
2023/05/17 05:40:12;;;;;;;14.02;3.13;;;;;;;23.98;100.00;100679.56;2082703;28;20041;-72
2023/05/17 05:41:36;;;;;;;14.70;3.50;;;;;;;24.15;100.00;100684.28;2083012;28;20441;-72
2023/05/17 05:42:57;;;;;;;13.98;3.50;;;;;;;24.30;100.00;100678.25;2079742;28;20036;-72
2023/05/17 05:44:20;;;;;;;8.82;3.30;;;;;;;24.44;100.00;100681.25;2093744;28;20044;-72
2023/05/17 05:45:46;;;;;;;9.82;3.70;;;;;;;24.56;100.00;100677.13;2088564;28;20073;-71
2023/05/17 05:47:10;;;;;;;11.18;3.17;;;;;;;24.62;100.00;100677.75;2091832;28;20436;-72
2023/05/17 05:48:32;;;;;;;14.13;3.90;;;;;;;24.72;100.00;100680.94;2093038;28;20041;-71
2023/05/17 05:49:55;;;;;;;12.15;3.70;;;;;;;24.85;100.00;100676.75;2085626;28;20049;-71
2023/05/17 05:51:18;;;;;;;11.43;3.63;;;;;;;25.02;100.00;100674.19;2082716;28;20086;-71
2023/05/17 05:52:40;;;;;;;13.02;4.20;;;;;;;25.21;100.00;100678.72;2082174;28;20080;-72
2023/05/17 05:54:03;;;;;;;15.75;3.53;;;;;;;25.35;100.00;100678.97;2082280;28;20128;-72
2023/05/17 05:55:26;;;;;;;12.07;3.55;;;;;;;25.41;100.00;100670.56;2094645;28;20063;-72
2023/05/17 05:56:50;;;;;;;17.40;4.13;;;;;;;25.55;100.00;100686.16;2082695;28;20046;-72
2023/05/17 05:58:18;;;;;;;12.05;3.30;;;;;;;25.68;100.00;100681.94;2093212;28;20075;-72
2023/05/17 05:59:42;;;;;;;14.57;3.78;;;;;;;25.80;100.00;100675.94;2085397;28;20563;-72
2023/05/17 06:01:04;;;;;;;12.20;3.20;;;;;;;25.92;100.00;100666.38;2076711;28;20040;-72
2023/05/17 06:02:28;;;;;;;17.55;3.60;;;;;;;26.06;100.00;100674.66;2091862;28;20109;-73
2023/05/17 06:03:51;;;;;;;12.55;3.20;;;;;;;26.14;100.00;100673.31;2102241;28;20784;-73
2023/05/17 06:05:14;;;;;;;9.63;3.05;;;;;;;26.25;100.00;100682.78;2090681;28;20036;-72
2023/05/17 06:06:36;;;;;;;12.20;3.20;;;;;;;26.20;99.27;100678.44;2099911;28;20059;-72
2023/05/17 06:07:57;;;;;;;9.63;2.85;;;;;;;26.17;99.29;100678.59;2093717;28;20044;-72
2023/05/17 06:09:20;;;;;;;16.92;3.30;;;;;;;26.22;98.72;100674.78;2093731;28;20044;-72
2023/05/17 06:10:42;;;;;;;12.98;2.97;;;;;;;26.31;98.87;100668.94;2094905;28;20436;-72
2023/05/17 06:12:05;;;;;;;15.90;3.50;;;;;;;26.45;98.67;100677.25;2093365;28;20049;-72
2023/05/17 06:13:27;;;;;;;15.32;3.88;;;;;;;26.56;97.09;100680.25;2096526;28;20052;-72
2023/05/17 06:14:49;;;;;;;11.68;3.53;;;;;;;26.60;97.33;100687.25;2096360;28;20048;-72
2023/05/17 06:16:11;;;;;;;12.57;3.03;;;;;;;26.59;99.84;100682.78;2092823;28;20048;-72
2023/05/17 06:17:35;;;;;;;11.48;2.88;;;;;;;26.65;99.67;100682.47;2093860;28;20115;-72
2023/05/17 06:18:58;;;;;;;12.65;3.05;;;;;;;26.71;98.94;100678.59;2092534;28;20527;-72
2023/05/17 06:20:19;;;;;;;13.02;3.40;;;;;;;26.80;97.38;100686.22;2098180;28;20051;-73